Time;durP1;ratioP1;P1;durP2;ratioP2;P2;SDS_P1;SDS_P2;PMS_P1;PMS_P2;Temp;Humidity;BMP_temperature;BMP_pressure;BME280_temperature;BME280_humidity;BME280_pressure;Samples;Min_cycle;Max_cycle;Signal;HPM_P1;HPM_P2
2022/08/08 00:01:54;;;;;;;3.15;1.70;;;;;;;16.46;53.46;99978.84;5062406;28;20036;-56
2022/08/08 00:04:31;;;;;;;4.05;1.90;;;;;;;16.42;52.97;99976.91;5075105;28;20490;-57
2022/08/08 00:07:07;;;;;;;4.65;1.75;;;;;;;16.41;53.31;99973.41;5075708;28;20046;-57
2022/08/08 00:10:10;;;;;;;2.28;1.50;;;;;;;16.33;54.07;99973.91;5080298;28;20033;-57
2022/08/08 00:12:46;;;;;;;2.38;1.65;;;;;;;16.13;54.49;99975.41;5075837;28;20028;-57
2022/08/08 00:15:16;;;;;;;2.65;1.65;;;;;;;16.21;54.42;99978.69;5074658;28;20024;-57
2022/08/08 00:17:41;;;;;;;;;;;;;;;16.11;54.92;99977.56;5057605;28;20021;-56
2022/08/08 00:20:08;;;;;;;3.13;1.70;;;;;;;16.05;54.93;99978.59;5075094;28;20004;-56
2022/08/08 00:22:39;;;;;;;6.70;1.70;;;;;;;16.13;54.95;99974.59;5074213;28;20028;-57
2022/08/08 00:25:07;;;;;;;3.33;1.73;;;;;;;16.12;55.05;99971.06;5075387;28;20437;-57
2022/08/08 00:27:34;;;;;;;3.92;1.73;;;;;;;16.13;54.54;99975.41;5073832;28;20467;-57
2022/08/08 00:30:02;;;;;;;3.33;1.90;;;;;;;16.12;54.55;99972.94;5068216;28;20520;-56
2022/08/08 00:32:45;;;;;;;4.18;1.77;;;;;;;16.11;54.82;99982.97;5075053;28;20024;-56
2022/08/08 00:35:39;;;;;;;3.97;2.00;;;;;;;16.08;55.24;99980.78;5079180;28;20031;-55
2022/08/08 00:38:29;;;;;;;2.70;1.90;;;;;;;15.93;55.66;99967.16;5077710;28;20024;-56
2022/08/08 00:41:01;;;;;;;3.50;1.70;;;;;;;16.10;55.80;99972.38;5074716;28;20025;-56
2022/08/08 00:43:46;;;;;;;3.47;1.80;;;;;;;16.06;55.07;99969.41;5074733;28;20067;-56
2022/08/08 00:46:20;;;;;;;4.78;2.17;;;;;;;16.01;55.40;99966.66;5075007;28;20036;-57
2022/08/08 00:48:55;;;;;;;2.65;1.67;;;;;;;16.04;55.77;99960.72;5074302;28;20028;-56
2022/08/08 00:51:51;;;;;;;4.35;1.80;;;;;;;15.88;56.19;99967.13;5074800;28;20029;-57
2022/08/08 00:54:40;;;;;;;3.58;2.00;;;;;;;15.86;56.56;99963.88;5074851;28;20090;-56
2022/08/08 00:57:15;;;;;;;5.27;1.93;;;;;;;15.85;56.34;99963.06;5082369;28;20378;-56
2022/08/08 00:59:43;;;;;;;5.00;2.00;;;;;;;15.90;56.41;99956.84;5074252;28;20497;-57
2022/08/08 01:02:36;;;;;;;6.18;2.10;;;;;;;15.91;56.04;99963.91;5074237;28;20051;-56
2022/08/08 01:05:53;;;;;;;4.75;2.45;;;;;;;15.84;57.20;99957.91;5072706;28;20056;-55
2022/08/08 01:08:42;;;;;;;5.97;2.15;;;;;;;15.78;57.11;99956.25;5067462;28;20040;-57
2022/08/08 01:11:41;;;;;;;2.95;1.90;;;;;;;15.73;57.25;99959.72;5074484;28;20540;-56
2022/08/08 01:14:22;;;;;;;4.68;1.80;;;;;;;15.68;57.25;99960.47;5074156;28;20039;-56
2022/08/08 01:17:24;;;;;;;5.88;2.10;;;;;;;15.52;58.17;99956.00;5081488;28;20028;-56
2022/08/08 01:20:08;;;;;;;3.42;1.98;;;;;;;15.50;58.00;99960.81;5073603;28;20024;-56
2022/08/08 01:23:00;;;;;;;4.20;2.00;;;;;;;15.56;57.70;99965.22;5078243;28;20024;-56
2022/08/08 01:25:25;;;;;;;4.40;1.90;;;;;;;15.53;57.82;99966.56;5078894;28;20039;-57
2022/08/08 01:28:22;;;;;;;4.32;2.20;;;;;;;15.50;58.06;99966.22;5074185;28;20020;-57
2022/08/08 01:31:17;;;;;;;4.55;2.08;;;;;;;15.50;58.13;99969.78;5074063;28;20028;-56
2022/08/08 01:33:48;;;;;;;4.13;1.92;;;;;;;15.45;58.38;99969.72;5077960;28;20036;-57
2022/08/08 01:36:23;;;;;;;3.67;2.10;;;;;;;15.41;59.04;99975.91;5074108;28;20031;-57
2022/08/08 01:39:03;;;;;;;3.97;2.28;;;;;;;15.31;58.92;99966.63;5073691;28;20386;-56
2022/08/08 01:41:31;;;;;;;;;;;;;;;15.29;59.08;99962.53;5074222;28;20032;-57
2022/08/08 01:44:19;;;;;;;5.25;2.55;;;;;;;15.26;59.18;99968.47;5073681;28;19920;-57
2022/08/08 01:46:55;;;;;;;3.75;2.00;;;;;;;15.22;59.74;99970.84;5072210;28;20453;-56
2022/08/08 01:49:35;;;;;;;3.75;2.13;;;;;;;15.23;59.79;99967.09;5071908;28;20025;-56
2022/08/08 01:52:18;;;;;;;3.47;2.10;;;;;;;15.12;60.27;99973.44;5083674;28;20032;-57
2022/08/08 01:55:21;;;;;;;8.73;2.22;;;;;;;15.10;60.23;99968.31;5072454;28;20016;-57
2022/08/08 01:58:05;;;;;;;4.80;2.47;;;;;;;15.12;60.36;99968.03;5073164;28;20038;-56
2022/08/08 02:01:11;;;;;;;4.43;2.28;;;;;;;15.04;60.68;99971.19;5079216;28;20028;-56
2022/08/08 02:03:37;;;;;;;5.75;2.55;;;;;;;15.01;60.73;99969.00;5065139;28;20106;-56
2022/08/08 02:06:27;;;;;;;3.35;2.15;;;;;;;14.99;61.11;99971.16;5073363;28;20390;-56
2022/08/08 02:09:02;;;;;;;7.93;2.03;;;;;;;15.02;60.95;99981.44;5073070;28;20502;-56
2022/08/08 02:11:33;;;;;;;3.08;2.13;;;;;;;15.05;61.04;99975.50;5068310;28;20048;-57
2022/08/08 02:14:07;;;;;;;4.97;2.28;;;;;;;15.00;61.05;99967.38;5071849;28;20028;-56
2022/08/08 02:16:56;;;;;;;4.82;2.20;;;;;;;14.94;61.35;99974.59;5073124;28;20037;-56
2022/08/08 02:19:54;;;;;;;4.38;2.40;;;;;;;14.87;61.60;99971.28;5072491;28;20544;-56
2022/08/08 02:22:41;;;;;;;5.35;2.40;;;;;;;14.86;62.09;99972.34;5083482;28;20040;-56
2022/08/08 02:25:31;;;;;;;3.95;2.30;;;;;;;14.86;61.70;99977.75;5055293;28;20016;-56
2022/08/08 02:28:03;;;;;;;6.15;2.30;;;;;;;14.78;62.17;99981.72;5072708;28;20478;-56
2022/08/08 02:31:00;;;;;;;6.40;2.33;;;;;;;14.75;62.30;99970.59;5072858;28;20025;-57
2022/08/08 02:33:28;;;;;;;4.22;2.45;;;;;;;14.74;62.34;99975.19;5072105;28;20574;-55
2022/08/08 02:36:26;;;;;;;5.43;2.30;;;;;;;14.76;62.57;99973.03;5073051;28;20127;-54
2022/08/08 02:39:29;;;;;;;3.35;2.20;;;;;;;14.69;62.97;99977.81;5071500;28;20025;-55
2022/08/08 02:42:19;;;;;;;4.93;2.88;;;;;;;14.71;62.69;99977.56;5072392;28;20029;-57
2022/08/08 02:44:50;;;;;;;4.03;2.20;;;;;;;14.70;63.05;99971.34;5071511;28;20024;-55
2022/08/08 02:47:26;;;;;;;5.97;2.92;;;;;;;14.62;63.19;99969.09;5072425;28;20040;-55
2022/08/08 02:50:03;;;;;;;4.43;2.58;;;;;;;14.64;63.31;99975.06;5074812;28;20024;-55
2022/08/08 02:52:47;;;;;;;4.85;2.47;;;;;;;14.61;63.43;99970.16;5072882;28;20024;-57
2022/08/08 02:55:25;;;;;;;6.03;3.33;;;;;;;14.68;63.05;99970.81;5071275;28;20047;-55
2022/08/08 02:57:56;;;;;;;5.03;2.80;;;;;;;14.60;63.41;99972.06;5074361;28;20434;-55
2022/08/08 03:00:42;;;;;;;6.30;2.60;;;;;;;14.51;63.77;99976.22;5074214;28;20088;-56
2022/08/08 03:03:45;;;;;;;6.40;2.35;;;;;;;14.54;63.68;99973.03;5073586;28;20076;-55
2022/08/08 03:06:29;;;;;;;4.70;3.13;;;;;;;14.49;63.96;99969.44;5072236;28;20380;-56
2022/08/08 03:09:46;;;;;;;7.15;2.85;;;;;;;14.45;64.06;99975.34;5074867;28;20081;-55
2022/08/08 03:12:24;;;;;;;5.72;2.53;;;;;;;14.37;64.48;99969.56;5043561;28;20047;-55
2022/08/08 03:15:00;;;;;;;6.70;2.90;;;;;;;14.33;64.89;99974.63;5072359;28;20359;-55
2022/08/08 03:17:44;;;;;;;4.85;2.50;;;;;;;14.29;64.94;99973.50;5077481;28;20149;-56
2022/08/08 03:20:12;;;;;;;4.75;2.60;;;;;;;14.34;64.72;99975.44;5072125;28;20060;-56
2022/08/08 03:22:55;;;;;;;6.57;2.70;;;;;;;14.29;65.23;99973.50;5071115;28;20479;-56
2022/08/08 03:25:21;;;;;;;6.47;2.72;;;;;;;14.19;65.79;99973.34;5072168;28;20039;-56
2022/08/08 03:27:50;;;;;;;4.65;2.75;;;;;;;14.24;65.21;99971.53;5070608;28;20028;-57
2022/08/08 03:30:15;;;;;;;4.50;2.80;;;;;;;14.27;65.22;99983.69;5072227;28;20040;-56
2022/08/08 03:35:26;;;;;;;3.88;2.70;;;;;;;14.10;65.95;99982.91;5070856;28;20086;-57
2022/08/08 03:37:51;;;;;;;5.65;2.92;;;;;;;14.12;65.96;99984.28;5072491;28;20025;-57
2022/08/08 03:40:19;;;;;;;5.90;2.65;;;;;;;14.15;66.33;99978.44;5070587;28;20039;-57
2022/08/08 03:42:44;;;;;;;3.88;2.67;;;;;;;14.08;66.37;99982.34;5071874;28;20470;-56
2022/08/08 03:45:20;;;;;;;5.28;2.80;;;;;;;13.97;66.79;99984.88;5071840;28;20036;-56
2022/08/08 03:48:08;;;;;;;6.72;2.90;;;;;;;14.01;66.87;99982.53;5071279;28;20111;-56
2022/08/08 03:50:46;;;;;;;5.38;2.70;;;;;;;14.01;66.97;99983.34;5071828;28;20032;-56
2022/08/08 03:53:15;;;;;;;6.00;3.20;;;;;;;13.95;66.87;99984.34;5070507;28;20052;-57
2022/08/08 03:55:41;;;;;;;6.55;2.85;;;;;;;13.77;68.13;99987.25;5071731;28;20474;-57
2022/08/08 03:58:07;;;;;;;7.15;3.10;;;;;;;13.77;67.94;99981.88;5085022;28;20028;-57
2022/08/08 04:00:33;;;;;;;6.43;3.17;;;;;;;13.71;68.19;99989.06;5079763;28;20089;-56
2022/08/08 04:03:04;;;;;;;5.35;2.78;;;;;;;13.69;68.84;99990.38;5071308;28;20032;-56
2022/08/08 04:05:31;;;;;;;5.13;3.00;;;;;;;13.67;68.77;99992.50;5069847;28;20509;-56
2022/08/08 04:07:57;;;;;;;8.27;3.42;;;;;;;13.68;68.85;99988.72;5071379;28;20055;-56
2022/08/08 04:10:23;;;;;;;12.23;3.35;;;;;;;13.71;68.56;99996.34;5071608;28;20067;-55
2022/08/08 04:12:48;;;;;;;9.00;3.13;;;;;;;13.72;68.72;99995.25;5073202;28;20477;-56
2022/08/08 04:15:14;;;;;;;7.38;3.50;;;;;;;13.76;68.14;99996.41;5070263;28;20142;-55
2022/08/08 04:17:39;;;;;;;9.10;3.55;;;;;;;13.76;68.47;99994.53;5071196;28;20097;-56
2022/08/08 04:20:05;;;;;;;6.93;3.40;;;;;;;14.00;67.95;99994.34;5069991;28;20032;-55
2022/08/08 04:22:30;;;;;;;9.10;3.03;;;;;;;14.17;67.22;99994.34;5071516;28;20029;-57
2022/08/08 04:24:56;;;;;;;8.63;3.17;;;;;;;14.60;65.89;100000.91;5071430;28;20518;-56
2022/08/08 04:27:21;;;;;;;11.35;3.63;;;;;;;15.32;63.69;100008.78;5071468;28;20387;-56
2022/08/08 04:29:47;;;;;;;9.35;3.60;;;;;;;16.48;59.63;100014.56;5073720;28;20444;-56
2022/08/08 04:32:15;;;;;;;9.93;3.53;;;;;;;16.83;58.04;100009.63;5084436;28;20035;-55
2022/08/08 04:34:41;;;;;;;9.98;3.50;;;;;;;17.95;55.08;100011.75;5072314;28;20356;-56
2022/08/08 04:37:06;;;;;;;13.02;3.40;;;;;;;18.13;54.38;100021.22;5075056;28;20111;-56
2022/08/08 04:39:32;;;;;;;11.73;3.38;;;;;;;18.40;53.46;100016.28;5074234;28;20028;-56
2022/08/08 04:41:57;;;;;;;10.50;3.70;;;;;;;18.55;53.16;100020.88;5075064;28;20028;-56
2022/08/08 04:44:23;;;;;;;15.10;3.53;;;;;;;18.29;53.49;100025.53;5074597;28;20494;-56
2022/08/08 04:46:48;;;;;;;13.55;3.85;;;;;;;18.76;52.38;100029.78;5075370;28;20115;-56
2022/08/08 04:49:13;;;;;;;18.17;3.85;;;;;;;18.72;52.44;100026.78;5073169;28;20029;-55
2022/08/08 04:51:39;;;;;;;25.50;4.15;;;;;;;19.98;49.39;100033.69;5074656;28;20032;-57
2022/08/08 04:54:04;;;;;;;16.85;3.88;;;;;;;19.18;50.05;100037.47;5075737;28;20024;-57
2022/08/08 04:56:30;;;;;;;14.18;3.80;;;;;;;19.44;50.15;100040.03;5077677;28;20103;-56
2022/08/08 04:58:55;;;;;;;13.57;4.10;;;;;;;19.93;48.85;100047.34;5074388;28;20029;-56
2022/08/08 05:01:21;;;;;;;10.90;4.22;;;;;;;19.80;49.39;100051.53;5074746;28;20059;-56
2022/08/08 05:03:46;;;;;;;13.40;4.43;;;;;;;19.09;51.05;100054.63;5074077;28;20372;-57
2022/08/08 05:06:12;;;;;;;11.27;4.13;;;;;;;20.55;48.06;100050.34;5074760;28;20093;-56
2022/08/08 05:08:37;;;;;;;11.95;4.10;;;;;;;21.51;45.26;100052.16;5075436;28;20524;-57
2022/08/08 05:11:03;;;;;;;17.10;4.70;;;;;;;20.41;47.70;100049.34;5074457;28;20029;-56
2022/08/08 05:13:28;;;;;;;14.95;3.92;;;;;;;21.39;45.67;100043.59;5074273;28;20028;-56
2022/08/08 05:15:54;;;;;;;12.95;4.38;;;;;;;21.97;44.40;100057.72;5079881;28;20036;-57
2022/08/08 05:18:19;;;;;;;20.63;4.60;;;;;;;22.41;43.74;100050.16;5075697;28;20017;-57
2022/08/08 05:20:44;;;;;;;12.70;4.30;;;;;;;22.79;42.40;100052.72;5074052;28;20029;-56
2022/08/08 05:23:10;;;;;;;17.77;4.60;;;;;;;21.66;44.74;100049.19;5072805;28;20020;-57
2022/08/08 05:25:35;;;;;;;17.38;4.45;;;;;;;22.92;42.54;100057.38;5074281;28;20024;-56
2022/08/08 05:28:01;;;;;;;13.93;4.70;;;;;;;23.37;41.24;100063.00;5074115;28;20025;-57
2022/08/08 05:30:29;;;;;;;19.13;4.75;;;;;;;23.11;41.56;100064.66;5074133;28;20024;-56
2022/08/08 05:32:55;;;;;;;13.67;4.53;;;;;;;23.42;41.13;100060.16;5055346;28;20081;-57
2022/08/08 05:35:21;;;;;;;18.60;4.43;;;;;;;21.63;44.62;100060.69;5076016;28;20107;-57
2022/08/08 05:37:52;;;;;;;18.60;5.10;;;;;;;22.01;44.17;100060.66;5073745;28;20023;-56
2022/08/08 05:40:18;;;;;;;23.15;5.25;;;;;;;22.50;43.73;100061.22;5073878;28;20509;-56
2022/08/08 05:42:45;;;;;;;16.70;4.78;;;;;;;22.74;42.86;100066.47;5073651;28;20021;-57
2022/08/08 05:45:12;;;;;;;14.38;4.75;;;;;;;22.25;44.06;100066.00;5073775;28;20474;-55
2022/08/08 05:47:37;;;;;;;16.65;5.05;;;;;;;22.49;43.39;100076.78;5076374;28;20489;-58
2022/08/08 05:50:06;;;;;;;14.85;5.22;;;;;;;23.48;41.82;100080.00;5073312;28;20044;-57
2022/08/08 05:52:36;;;;;;;17.60;5.15;;;;;;;23.96;40.73;100078.66;5072465;28;20050;-56
2022/08/08 05:55:05;;;;;;;;;;;;;;;25.87;37.29;100075.81;5081722;28;20107;-55
2022/08/08 05:57:33;;;;;;;12.30;4.55;;;;;;;25.00;38.94;100084.69;5072113;28;20038;-56
2022/08/08 05:59:58;;;;;;;18.40;4.80;;;;;;;24.96;38.46;100086.44;5073291;28;20045;-56
2022/08/08 06:05:08;;;;;;;29.48;5.97;;;;;;;26.77;36.27;100086.75;5075810;28;20407;-57
2022/08/08 06:07:35;;;;;;;31.80;5.88;;;;;;;26.58;36.46;100087.16;5073974;28;20017;-57
2022/08/08 06:10:01;;;;;;;19.63;5.05;;;;;;;26.71;36.03;100090.84;5059407;28;20016;-56
2022/08/08 06:12:26;;;;;;;23.05;5.32;;;;;;;26.34;36.23;100087.69;5066518;28;20036;-57
2022/08/08 06:14:52;;;;;;;16.63;5.20;;;;;;;26.39;36.74;100100.47;5076973;28;20032;-57
2022/08/08 06:17:17;;;;;;;23.60;5.50;;;;;;;26.61;36.11;100097.50;5060104;28;20031;-56
2022/08/08 06:19:42;;;;;;;22.92;5.05;;;;;;;26.70;35.86;100097.47;5054506;28;20028;-57
2022/08/08 06:22:08;;;;;;;28.50;6.22;;;;;;;25.92;36.92;100100.38;5054973;28;20032;-56
2022/08/08 06:24:34;;;;;;;23.83;5.55;;;;;;;24.96;37.72;100102.91;5073311;28;20099;-57
2022/08/08 06:27:03;;;;;;;27.83;5.57;;;;;;;24.98;38.74;100097.91;5072833;28;20428;-56
2022/08/08 06:29:33;;;;;;;;;;;;;;;24.57;39.22;100107.25;5073239;28;20024;-56
2022/08/08 06:32:03;;;;;;;18.48;5.30;;;;;;;24.49;39.40;100111.56;5073029;28;20286;-55
2022/08/08 06:34:33;;;;;;;15.60;5.45;;;;;;;24.91;39.16;100108.53;5074318;28;20751;-57
2022/08/08 06:36:58;;;;;;;16.95;5.32;;;;;;;24.71;39.30;100109.88;5078196;28;20025;-57
2022/08/08 06:39:24;;;;;;;15.32;5.13;;;;;;;25.23;38.76;100125.75;5072565;28;20029;-57
2022/08/08 06:41:53;;;;;;;21.98;5.90;;;;;;;26.92;35.87;100107.41;5071656;28;20028;-56
2022/08/08 06:44:19;;;;;;;21.35;5.45;;;;;;;25.97;37.45;100119.41;5072264;28;20024;-57
2022/08/08 06:46:44;;;;;;;17.02;5.57;;;;;;;25.95;37.63;100108.75;5071251;28;20024;-57
2022/08/08 06:49:10;;;;;;;19.45;5.38;;;;;;;23.61;41.07;100122.94;5078388;28;20043;-57
2022/08/08 06:51:36;;;;;;;14.60;5.20;;;;;;;25.30;39.00;100120.63;5072260;28;20095;-56
2022/08/08 06:54:04;;;;;;;14.80;5.25;;;;;;;26.88;35.68;100129.28;5072703;28;20747;-56
2022/08/08 06:56:30;;;;;;;32.00;5.40;;;;;;;24.31;39.52;100123.50;5076989;28;20082;-56
2022/08/08 06:58:56;;;;;;;51.45;6.65;;;;;;;25.96;37.75;100126.03;5072306;28;20028;-57
2022/08/08 07:01:25;;;;;;;32.50;5.40;;;;;;;25.27;38.27;100133.03;5072309;28;20028;-57
2022/08/08 07:03:57;;;;;;;30.15;6.05;;;;;;;25.44;38.18;100124.03;5070194;28;20036;-57
2022/08/08 07:06:23;;;;;;;13.02;4.72;;;;;;;26.40;36.16;100122.09;5072466;28;20036;-57
2022/08/08 07:08:51;;;;;;;15.10;5.25;;;;;;;25.84;37.46;100129.41;5072009;28;20016;-56
2022/08/08 07:11:19;;;;;;;18.67;4.95;;;;;;;26.03;37.17;100126.34;5073079;28;20489;-56
2022/08/08 07:13:45;;;;;;;13.88;4.93;;;;;;;25.98;36.78;100130.06;5071844;28;20029;-56
2022/08/08 07:16:21;;;;;;;20.17;4.93;;;;;;;26.02;36.98;100131.03;5071628;28;20070;-56
2022/08/08 07:19:07;;;;;;;22.60;4.50;;;;;;;25.87;36.84;100128.78;5071329;28;20075;-56
2022/08/08 07:21:39;;;;;;;16.95;4.78;;;;;;;26.66;35.28;100127.56;5071193;28;20044;-56
2022/08/08 07:24:18;;;;;;;14.98;4.80;;;;;;;25.30;37.32;100137.09;5074886;28;20047;-56
2022/08/08 07:26:45;;;;;;;14.25;4.38;;;;;;;25.05;36.89;100138.59;5075752;28;20020;-54
2022/08/08 07:29:10;;;;;;;24.10;5.30;;;;;;;23.93;39.60;100128.56;5081277;28;20478;-56
2022/08/08 07:31:36;;;;;;;18.38;5.18;;;;;;;24.71;38.29;100140.88;5080332;28;20077;-55
2022/08/08 07:34:05;;;;;;;14.13;4.38;;;;;;;26.95;35.34;100127.94;5084329;28;20024;-57
2022/08/08 07:36:30;;;;;;;13.27;4.07;;;;;;;26.92;35.18;100136.84;5078390;28;20024;-57
2022/08/08 07:38:56;;;;;;;17.30;4.47;;;;;;;28.50;32.60;100141.75;5071871;28;20078;-57
2022/08/08 07:41:22;;;;;;;28.30;5.20;;;;;;;28.27;32.59;100138.56;5071904;28;20085;-56
2022/08/08 07:43:48;;;;;;;26.90;4.57;;;;;;;25.86;35.10;100143.66;5054146;28;20028;-56
2022/08/08 07:46:13;;;;;;;18.55;4.57;;;;;;;26.35;36.22;100136.00;5069580;28;20043;-55
2022/08/08 07:48:38;;;;;;;21.88;4.90;;;;;;;27.61;33.42;100139.25;5071189;28;20478;-55
2022/08/08 07:51:04;;;;;;;18.65;4.55;;;;;;;26.27;35.65;100144.28;5071914;28;20025;-55
2022/08/08 07:54:11;;;;;;;24.00;5.32;;;;;;;27.84;33.26;100138.94;5071648;28;20538;-56
2022/08/08 07:57:21;;;;;;;17.67;4.28;;;;;;;25.51;35.19;100140.03;5074402;28;20487;-55
2022/08/08 07:59:57;;;;;;;11.02;3.72;;;;;;;25.96;36.01;100142.50;5068089;28;20040;-55
2022/08/08 08:02:26;;;;;;;13.95;4.68;;;;;;;25.50;36.67;100144.69;5072897;28;20498;-55
2022/08/08 08:04:52;;;;;;;18.58;4.72;;;;;;;24.98;37.63;100144.53;5069549;28;20475;-54
2022/08/08 08:07:20;;;;;;;15.90;4.63;;;;;;;25.10;38.12;100149.41;5075612;28;20165;-55
2022/08/08 08:09:45;;;;;;;14.55;4.53;;;;;;;26.40;35.66;100140.53;5072212;28;20037;-55
2022/08/08 08:12:11;;;;;;;11.13;4.40;;;;;;;27.55;33.91;100143.31;5080567;28;20035;-55
2022/08/08 08:14:45;;;;;;;10.15;4.03;;;;;;;27.73;33.65;100147.59;5077093;28;20023;-55
2022/08/08 08:17:11;;;;;;;8.27;4.20;;;;;;;28.45;33.05;100150.22;5076771;28;20429;-55
2022/08/08 08:19:37;;;;;;;18.08;4.70;;;;;;;25.57;35.91;100142.28;5057326;28;20107;-55
2022/08/08 08:22:03;;;;;;;14.85;4.35;;;;;;;25.41;37.06;100146.66;5074186;28;20040;-55
2022/08/08 08:24:28;;;;;;;14.85;4.53;;;;;;;27.11;34.82;100148.25;5074568;28;20082;-55
2022/08/08 08:26:54;;;;;;;19.98;4.07;;;;;;;27.26;34.88;100144.97;5075461;28;20355;-55
2022/08/08 08:29:19;;;;;;;17.73;4.10;;;;;;;26.49;35.30;100149.56;5075075;28;20037;-54
2022/08/08 08:31:44;;;;;;;13.73;4.50;;;;;;;24.81;37.56;100150.75;5074936;28;20028;-55
2022/08/08 08:34:11;;;;;;;9.38;4.07;;;;;;;25.68;37.06;100142.00;5074960;28;20033;-56
2022/08/08 08:36:37;;;;;;;15.07;4.15;;;;;;;25.23;36.74;100153.19;5081411;28;20386;-54
2022/08/08 08:39:02;;;;;;;13.13;4.47;;;;;;;24.21;38.96;100143.75;5080142;28;20025;-54
2022/08/08 08:41:28;;;;;;;11.10;3.78;;;;;;;26.85;34.64;100148.34;5077883;28;20032;-56
2022/08/08 08:43:53;;;;;;;12.30;4.07;;;;;;;25.78;36.22;100147.16;5076730;28;20021;-54
2022/08/08 08:46:18;;;;;;;17.30;4.07;;;;;;;25.52;36.39;100150.69;5057017;28;20028;-55
2022/08/08 08:48:44;;;;;;;17.40;4.75;;;;;;;25.85;36.84;100147.53;5073416;28;20485;-56
2022/08/08 08:51:11;;;;;;;9.93;4.18;;;;;;;26.66;34.71;100152.31;5056659;28;20032;-55
2022/08/08 08:53:48;;;;;;;11.63;3.78;;;;;;;27.88;33.09;100153.63;5074234;28;20421;-56
2022/08/08 08:56:14;;;;;;;19.05;3.92;;;;;;;27.95;32.39;100148.41;5078896;28;20459;-56
2022/08/08 08:58:43;;;;;;;17.15;4.13;;;;;;;26.13;35.48;100149.94;5075047;28;20024;-55
2022/08/08 09:01:10;;;;;;;19.92;4.80;;;;;;;27.75;32.62;100156.28;5077497;28;20563;-57
2022/08/08 09:03:39;;;;;;;22.77;4.70;;;;;;;26.25;35.61;100155.59;5074081;28;20079;-56
2022/08/08 09:06:04;;;;;;;17.85;3.97;;;;;;;26.36;35.33;100145.88;5076934;28;20031;-56
2022/08/08 09:08:30;;;;;;;23.25;3.95;;;;;;;27.08;33.42;100148.91;5056501;28;20028;-56
2022/08/08 09:10:55;;;;;;;10.80;3.33;;;;;;;28.06;32.07;100149.63;5074901;28;20028;-56
2022/08/08 09:13:21;;;;;;;13.00;3.70;;;;;;;27.34;32.72;100153.50;5072970;28;20039;-56
2022/08/08 09:15:47;;;;;;;13.73;3.60;;;;;;;27.18;33.35;100153.22;5075307;28;20032;-55
2022/08/08 09:18:13;;;;;;;13.07;3.40;;;;;;;28.49;31.23;100150.38;5075832;28;20032;-56
2022/08/08 09:20:38;;;;;;;34.78;4.72;;;;;;;27.66;32.41;100146.50;5073048;28;20028;-56
2022/08/08 09:23:04;;;;;;;22.10;3.70;;;;;;;26.04;34.89;100155.44;5056086;28;20032;-57
2022/08/08 09:25:31;;;;;;;8.63;3.65;;;;;;;24.85;37.61;100156.41;5073030;28;20148;-56
2022/08/08 09:27:57;;;;;;;9.57;3.90;;;;;;;26.47;34.73;100146.34;5061427;28;20016;-56
2022/08/08 09:30:23;;;;;;;13.88;3.35;;;;;;;28.20;32.83;100143.00;5079455;28;20044;-55
2022/08/08 09:32:56;;;;;;;15.55;3.90;;;;;;;28.42;32.62;100139.88;5061894;28;20028;-56
2022/08/08 09:35:27;;;;;;;18.17;4.00;;;;;;;26.94;34.01;100143.63;5074216;28;20025;-55
2022/08/08 09:37:54;;;;;;;22.13;3.67;;;;;;;26.76;34.25;100134.66;5089397;28;20070;-55
2022/08/08 09:40:23;;;;;;;10.52;3.50;;;;;;;26.65;35.25;100125.13;5073892;28;20067;-55
2022/08/08 09:42:50;;;;;;;13.07;3.42;;;;;;;27.97;33.32;100140.63;5078151;28;20028;-55
2022/08/08 09:45:31;;;;;;;9.77;3.45;;;;;;;25.94;35.22;100134.59;5072459;28;20116;-55
2022/08/08 09:48:02;;;;;;;10.35;3.53;;;;;;;26.79;34.32;100131.25;5071980;28;20503;-55
2022/08/08 09:50:29;;;;;;;15.63;3.83;;;;;;;26.65;34.59;100130.63;5073734;28;20060;-54
2022/08/08 09:52:55;;;;;;;7.47;3.35;;;;;;;28.27;31.84;100137.75;5072312;28;20029;-54
2022/08/08 09:55:21;;;;;;;14.30;3.45;;;;;;;28.77;31.48;100145.03;5073781;28;20490;-55
2022/08/08 09:57:48;;;;;;;11.18;3.28;;;;;;;27.80;33.32;100140.72;5073734;28;20094;-55
2022/08/08 10:00:16;;;;;;;16.58;3.50;;;;;;;28.74;31.48;100134.69;5073479;28;20443;-53
2022/08/08 10:02:43;;;;;;;11.75;3.13;;;;;;;29.01;31.10;100138.72;5073267;28;20025;-56
2022/08/08 10:05:09;;;;;;;8.80;3.50;;;;;;;28.32;32.04;100130.06;5073241;28;20040;-54
2022/08/08 10:07:35;;;;;;;14.48;3.35;;;;;;;28.13;32.45;100132.53;5073213;28;20459;-56
2022/08/08 10:10:00;;;;;;;10.93;3.72;;;;;;;29.07;30.53;100128.28;5073607;28;20027;-55
2022/08/08 10:12:34;;;;;;;15.15;3.30;;;;;;;29.79;29.44;100129.34;5078000;28;20073;-54
2022/08/08 10:15:00;;;;;;;9.45;3.22;;;;;;;29.72;29.23;100128.34;5073835;28;20029;-55
2022/08/08 10:17:25;;;;;;;9.40;3.10;;;;;;;29.06;30.37;100123.94;5076680;28;20512;-55
2022/08/08 10:19:55;;;;;;;10.27;3.03;;;;;;;28.91;29.81;100120.69;5072577;28;20032;-55
2022/08/08 10:22:20;;;;;;;8.68;3.10;;;;;;;29.65;28.75;100113.19;5071785;28;20107;-55
2022/08/08 10:24:46;;;;;;;6.15;2.72;;;;;;;28.42;28.91;100112.28;5055269;28;20021;-55
2022/08/08 10:27:11;;;;;;;11.93;3.28;;;;;;;28.18;30.48;100111.09;5072288;28;20378;-55
2022/08/08 10:29:54;;;;;;;12.60;3.20;;;;;;;28.65;29.90;100114.66;5071775;28;20098;-54
2022/08/08 10:32:31;;;;;;;4.47;2.40;;;;;;;27.29;30.67;100111.28;5073488;28;20056;-54
2022/08/08 10:35:01;;;;;;;5.20;2.60;;;;;;;28.51;29.94;100102.00;5074602;28;20115;-54
2022/08/08 10:37:28;;;;;;;7.88;2.72;;;;;;;29.12;29.06;100094.94;5072910;28;20429;-55
2022/08/08 10:39:55;;;;;;;9.00;2.67;;;;;;;29.35;28.60;100093.28;5072599;28;20501;-55
2022/08/08 10:42:22;;;;;;;5.65;2.55;;;;;;;29.74;28.54;100092.91;5073320;28;20040;-56
2022/08/08 10:44:48;;;;;;;8.15;2.67;;;;;;;28.71;27.63;100094.00;5072579;28;20031;-55
2022/08/08 10:47:14;;;;;;;6.75;2.38;;;;;;;29.29;28.11;100083.66;5054648;28;20024;-55
2022/08/08 10:49:40;;;;;;;4.93;2.28;;;;;;;26.93;30.09;100086.19;5072366;28;20085;-55
2022/08/08 10:52:06;;;;;;;5.93;2.25;;;;;;;28.09;29.29;100088.31;5072667;28;20468;-55
2022/08/08 10:54:31;;;;;;;10.75;2.72;;;;;;;29.10;28.47;100086.19;5072732;28;20039;-55
2022/08/08 10:56:58;;;;;;;11.25;2.65;;;;;;;28.22;28.52;100083.66;5072318;28;20282;-54
2022/08/08 10:59:24;;;;;;;6.68;2.60;;;;;;;28.12;29.00;100084.88;5072197;28;20137;-55
2022/08/08 11:01:49;;;;;;;5.38;2.15;;;;;;;28.37;29.35;100085.75;5071113;28;20028;-55
2022/08/08 11:04:14;;;;;;;4.45;2.17;;;;;;;26.95;30.09;100070.97;5070126;28;20037;-55
2022/08/08 11:06:40;;;;;;;6.90;2.38;;;;;;;27.73;30.16;100075.97;5072457;28;20040;-54
2022/08/08 11:09:06;;;;;;;10.45;2.58;;;;;;;26.53;31.52;100084.56;5074437;28;20047;-54
2022/08/08 11:11:43;;;;;;;8.30;2.40;;;;;;;26.77;30.90;100070.25;5071249;28;20360;-57
2022/08/08 11:14:10;;;;;;;8.25;2.45;;;;;;;28.56;29.88;100076.97;5072208;28;20532;-57
2022/08/08 11:16:39;;;;;;;5.75;2.38;;;;;;;28.29;29.25;100063.81;5075273;28;20070;-55
2022/08/08 11:19:04;;;;;;;10.85;2.65;;;;;;;27.60;30.05;100076.25;5070564;28;20025;-55
2022/08/08 11:21:35;;;;;;;7.47;2.65;;;;;;;28.18;29.09;100074.44;5070838;28;20043;-53
2022/08/08 11:24:03;;;;;;;6.40;2.60;;;;;;;28.69;28.82;100077.00;5072171;28;20028;-55
2022/08/08 11:26:29;;;;;;;7.05;2.30;;;;;;;28.45;28.90;100072.25;5074136;28;20078;-54
2022/08/08 11:28:55;;;;;;;6.50;2.50;;;;;;;28.55;29.13;100072.59;5070556;28;20028;-54
2022/08/08 11:31:21;;;;;;;5.78;2.55;;;;;;;29.73;26.31;100066.41;5070763;28;20201;-55
2022/08/08 11:33:49;;;;;;;4.68;2.30;;;;;;;28.86;27.79;100064.94;5067522;28;20466;-55
2022/08/08 11:36:14;;;;;;;4.88;2.10;;;;;;;29.03;28.08;100065.50;5071565;28;20479;-55
2022/08/08 11:38:44;;;;;;;5.85;2.70;;;;;;;29.42;28.04;100062.34;5071873;28;20074;-54
2022/08/08 11:41:10;;;;;;;5.18;2.20;;;;;;;27.48;29.33;100058.53;5070583;28;20024;-55
2022/08/08 11:43:35;;;;;;;5.97;2.40;;;;;;;27.13;30.01;100052.41;5071489;28;20035;-56
2022/08/08 11:46:01;;;;;;;11.48;2.13;;;;;;;28.87;28.41;100058.25;5071666;28;20044;-55
2022/08/08 11:48:26;;;;;;;5.28;2.20;;;;;;;27.12;30.15;100048.06;5070136;28;20028;-55
2022/08/08 11:50:51;;;;;;;7.32;2.50;;;;;;;28.25;29.01;100051.84;5070396;28;20028;-54